Weather at Astoria Regional Airport

Public forecast

Using degrees Fahrenheit for public forecast. Weather courtesy of forecast.io.

Current aviation weather report (METAR) for Astoria Regional Airport

Retrieved 2021/05/10 21:55 UTC (46 minutes ago):

KAST 102155Z AUTO 32013KT 10SM CLR 14/08 A3029 RMK AO2 SLP255 T01390078

Aviation forecast (TAF) for Astoria Regional Airport

Retrieved 2021/05/10 18:40 UTC (4 hours ago):

TAF KAST 101738Z 1018/1118 33004KT P6SM OVC019 FM102000 32005KT P6SM SCT060 FM110000 32012G18KT P6SM FEW200 FM110500 32011G17KT P6SM SCT250 FM110900 34005KT P6SM BKN015 BKN045